createdAt,value
2019-01-12T00:01:57.493Z,98935.68
2019-01-12T00:04:28.088Z,98935.96
2019-01-12T00:06:58.623Z,98939.26
2019-01-12T00:09:29.183Z,98944.64
2019-01-12T00:11:59.700Z,98944.64
2019-01-12T00:14:30.168Z,98936.21
2019-01-12T00:17:00.783Z,98941.31
2019-01-12T00:19:31.385Z,98949.98
2019-01-12T00:22:02.536Z,98949.74
2019-01-12T00:24:33.326Z,98943.24
2019-01-12T00:27:03.998Z,98942.34
2019-01-12T00:29:34.538Z,98949.22
2019-01-12T00:32:05.298Z,98935.31
2019-01-12T00:34:35.961Z,98939.02
2019-01-12T00:37:06.562Z,98939.42
2019-01-12T00:39:37.108Z,98942.59
2019-01-12T00:42:07.723Z,98936.22
2019-01-12T00:44:38.359Z,98950.77
2019-01-12T00:47:08.931Z,98946.54
2019-01-12T00:49:39.490Z,98950.89
2019-01-12T00:52:10.052Z,98955.59
2019-01-12T00:54:40.515Z,98955.09
2019-01-12T00:57:11.451Z,98950.48
2019-01-12T00:59:42.017Z,98956.37
2019-01-12T01:02:12.563Z,98959.95
2019-01-12T01:04:43.139Z,98960.44
2019-01-12T01:07:13.839Z,98969.24
2019-01-12T01:09:44.512Z,98967.59
2019-01-12T01:12:15.222Z,98970.92
2019-01-12T01:14:45.971Z,98965.95
2019-01-12T01:17:16.693Z,98971.42
2019-01-12T01:19:47.392Z,98982.41
2019-01-12T01:22:17.988Z,98987.50
2019-01-12T01:24:48.583Z,98988.78
2019-01-12T01:27:19.228Z,98988.13
2019-01-12T01:29:49.919Z,98995.28
2019-01-12T01:32:20.619Z,99001.00
2019-01-12T01:34:51.289Z,98997.70
2019-01-12T01:37:21.970Z,99000.75
2019-01-12T01:39:52.598Z,99011.98
2019-01-12T01:42:23.208Z,99004.33
2019-01-12T01:44:53.832Z,99017.46
2019-01-12T01:47:24.292Z,99019.89
2019-01-12T01:49:55.719Z,99012.77
2019-01-12T01:52:26.317Z,99014.29
2019-01-12T01:54:56.792Z,99011.23
2019-01-12T01:57:27.558Z,99019.77
2019-01-12T01:59:58.082Z,99024.99
2019-01-12T02:02:28.692Z,99018.89
2019-01-12T02:04:59.279Z,99021.81
2019-01-12T02:07:29.909Z,99019.27
2019-01-12T02:10:00.660Z,99018.52
2019-01-12T02:12:31.298Z,99027.05
2019-01-12T02:15:01.933Z,99033.83
2019-01-12T02:17:32.622Z,99031.65
2019-01-12T02:20:03.183Z,99031.77
2019-01-12T02:22:34.053Z,99028.98
2019-01-12T02:25:05.490Z,99021.20
2019-01-12T02:27:36.212Z,99026.92
2019-01-12T02:30:12.901Z,99029.34
2019-01-12T02:32:43.668Z,99027.17
2019-01-12T02:35:14.478Z,99027.82
2019-01-12T02:37:45.338Z,99028.07
2019-01-12T02:40:16.163Z,99030.75
2019-01-12T02:42:46.865Z,99027.83
2019-01-12T02:45:17.943Z,99026.55
2019-01-12T02:47:48.593Z,99032.68
2019-01-12T02:50:19.292Z,99033.30
2019-01-12T02:52:49.993Z,99029.34
2019-01-12T02:55:20.652Z,99030.50
2019-01-12T02:57:51.681Z,99022.47
2019-01-12T03:00:22.294Z,99031.40
2019-01-12T03:02:52.970Z,99030.87
2019-01-12T03:05:24.322Z,99041.61
2019-01-12T03:07:55.005Z,99041.11
2019-01-12T03:10:25.762Z,99047.20
2019-01-12T03:12:56.360Z,99043.91
2019-01-12T03:15:27.063Z,99040.83
2019-01-12T03:17:57.845Z,99043.38
2019-01-12T03:20:28.555Z,99045.31
2019-01-12T03:22:59.229Z,99049.14
2019-01-12T03:25:29.905Z,99045.68
2019-01-12T03:28:00.684Z,99054.61
2019-01-12T03:30:31.264Z,99054.73
2019-01-12T03:33:02.306Z,99058.08
2019-01-12T03:35:33.003Z,99056.92
2019-01-12T03:38:03.851Z,99052.84
2019-01-12T03:40:34.602Z,99054.61
2019-01-12T03:43:05.327Z,99059.72
2019-01-12T03:45:36.090Z,99060.25
2019-01-12T03:48:06.790Z,99052.72
2019-01-12T03:50:37.386Z,99052.72
2019-01-12T03:53:08.438Z,99052.84
2019-01-12T03:55:39.224Z,99060.38
2019-01-12T03:58:09.984Z,99059.72
2019-01-12T04:00:40.690Z,99064.33
2019-01-12T04:03:11.473Z,99061.77
2019-01-12T04:05:42.893Z,99058.56
2019-01-12T04:08:13.704Z,99067.00
2019-01-12T04:10:44.328Z,99055.89
2019-01-12T04:13:15.144Z,99061.27
2019-01-12T04:15:47.534Z,99059.09
2019-01-12T04:18:18.267Z,99055.39
2019-01-12T04:20:49.073Z,99051.06
2019-01-12T04:23:19.821Z,99053.75
2019-01-12T04:25:50.583Z,99062.15
2019-01-12T04:28:21.452Z,99063.67
2019-01-12T04:30:52.104Z,99059.97
2019-01-12T04:33:22.650Z,99068.91
2019-01-12T04:35:53.520Z,99067.62
2019-01-12T04:38:24.140Z,99075.28
2019-01-12T04:40:54.742Z,99074.79
2019-01-12T04:43:25.360Z,99081.05
2019-01-12T04:45:56.053Z,99083.34
2019-01-12T04:48:26.595Z,99086.02
2019-01-12T04:50:57.282Z,99082.56
2019-01-12T04:53:28.036Z,99089.20
2019-01-12T04:55:58.988Z,99094.18
2019-01-12T04:58:29.583Z,99101.22
2019-01-12T05:01:00.295Z,99104.14
2019-01-12T05:03:30.833Z,99102.09
2019-01-12T05:06:01.568Z,99106.31
2019-01-12T05:08:32.029Z,99100.43
2019-01-12T05:11:02.626Z,99107.59
2019-01-12T05:13:33.337Z,99107.31
2019-01-12T05:16:03.865Z,99108.20
2019-01-12T05:18:34.377Z,99098.25
2019-01-12T05:21:05.129Z,99103.89
2019-01-12T05:23:36.022Z,99110.11
2019-01-12T05:26:07.427Z,99107.84
2019-01-12T05:28:37.907Z,99109.48
2019-01-12T05:31:08.357Z,99109.48
2019-01-12T05:33:38.887Z,99109.23
2019-01-12T05:36:09.727Z,99105.53
2019-01-12T05:38:40.399Z,99117.51
2019-01-12T05:41:11.008Z,99119.69
2019-01-12T05:43:42.281Z,99122.73
2019-01-12T05:46:12.943Z,99125.05
2019-01-12T05:48:43.531Z,99121.46
2019-01-12T05:51:14.181Z,99132.69
2019-01-12T05:53:44.798Z,99133.84
2019-01-12T05:56:15.404Z,99135.86
2019-01-12T05:58:45.907Z,99137.42
2019-01-12T06:01:16.678Z,99131.17
2019-01-12T06:03:47.360Z,99139.08
2019-01-12T06:06:18.151Z,99141.13
2019-01-12T06:08:48.768Z,99147.64
2019-01-12T06:11:19.427Z,99151.06
2019-01-12T06:13:49.922Z,99152.98
2019-01-12T06:16:20.782Z,99152.48
2019-01-12T06:18:51.562Z,99156.44
2019-01-12T06:21:22.188Z,99154.37
2019-01-12T06:23:52.697Z,99161.14
2019-01-12T06:26:23.376Z,99165.63
2019-01-12T06:28:53.962Z,99171.47
2019-01-12T06:31:24.561Z,99159.73
2019-01-12T06:33:55.952Z,99166.89
2019-01-12T06:36:26.618Z,99168.41
2019-01-12T06:38:57.218Z,99171.20
2019-01-12T06:41:27.817Z,99173.14
2019-01-12T06:43:58.306Z,99171.45
2019-01-12T06:46:29.112Z,99171.33
2019-01-12T06:48:59.698Z,99167.74
2019-01-12T06:51:30.337Z,99171.20
2019-01-12T06:54:01.081Z,99175.80
2019-01-12T06:56:31.657Z,99181.39
2019-01-12T06:59:02.366Z,99178.45
2019-01-12T07:01:33.148Z,99190.30
2019-01-12T07:04:04.131Z,99180.59
2019-01-12T07:06:34.960Z,99186.70
2019-01-12T07:09:08.662Z,99191.56
2019-01-12T07:11:39.363Z,99189.94
2019-01-12T07:14:09.981Z,99189.38
2019-01-12T07:16:40.709Z,99193.22
2019-01-12T07:19:11.513Z,99196.15
2019-01-12T07:21:42.097Z,99194.13
2019-01-12T07:24:12.797Z,99188.14
2019-01-12T07:26:43.437Z,99201.31
2019-01-12T07:29:14.025Z,99200.16
2019-01-12T07:31:44.635Z,99194.78
2019-01-12T07:34:15.283Z,99199.48
2019-01-12T07:36:45.868Z,99189.05
2019-01-12T07:39:16.575Z,99195.16
2019-01-12T07:41:47.025Z,99196.94
2019-01-12T07:44:17.626Z,99199.75
2019-01-12T07:46:48.484Z,99193.03
2019-01-12T07:49:19.367Z,99191.63
2019-01-12T07:51:50.087Z,99193.39
2019-01-12T07:54:20.823Z,99196.57
2019-01-12T07:56:51.529Z,99196.83
2019-01-12T07:59:22.170Z,99192.63
2019-01-12T08:01:53.121Z,99189.49
2019-01-12T08:04:23.712Z,99188.22
2019-01-12T08:06:54.539Z,99192.19
2019-01-12T08:09:25.525Z,99195.59
2019-01-12T08:11:55.968Z,99186.95
2019-01-12T08:14:26.679Z,99195.60
2019-01-12T08:16:57.376Z,99196.81
2019-01-12T08:19:28.076Z,99193.48
2019-01-12T08:21:58.750Z,99188.75
2019-01-12T08:24:29.407Z,99193.75
2019-01-12T08:27:00.236Z,99193.02
2019-01-12T08:29:31.052Z,99186.13
2019-01-12T08:32:01.707Z,99194.30
2019-01-12T08:34:32.207Z,99185.89
2019-01-12T08:37:02.833Z,99184.61
2019-01-12T08:39:33.533Z,99185.72
2019-01-12T08:42:04.100Z,99180.23
2019-01-12T08:44:35.526Z,99176.53
2019-01-12T08:47:06.168Z,99179.70
2019-01-12T08:49:36.888Z,99178.84
2019-01-12T08:52:07.622Z,99177.27
2019-01-12T08:54:38.230Z,99179.98
2019-01-12T08:57:08.873Z,99176.78
2019-01-12T08:59:39.497Z,99179.98
2019-01-12T09:02:10.313Z,99175.92
2019-01-12T09:04:43.509Z,99177.08
2019-01-12T09:07:13.608Z,99172.09
2019-01-12T09:09:44.131Z,99172.47
2019-01-12T09:12:14.825Z,99178.73
2019-01-12T09:14:45.378Z,99172.09
2019-01-12T09:17:16.098Z,99172.12
2019-01-12T09:19:46.732Z,99172.97
2019-01-12T09:22:17.338Z,99165.45
2019-01-12T09:24:48.282Z,99170.42
2019-01-12T09:27:19.038Z,99161.70
2019-01-12T09:29:49.559Z,99163.89
2019-01-12T09:32:20.242Z,99157.23
2019-01-12T09:34:50.953Z,99155.39
2019-01-12T09:37:21.626Z,99158.44
2019-01-12T09:39:52.391Z,99146.67
2019-01-12T09:42:23.141Z,99152.30
2019-01-12T09:44:53.897Z,99155.20
2019-01-12T09:47:24.654Z,99150.59
2019-01-12T09:49:55.801Z,99145.33
2019-01-12T09:52:26.505Z,99139.62
2019-01-12T09:54:57.158Z,99138.84
2019-01-12T09:57:28.342Z,99137.33
2019-01-12T09:59:58.937Z,99139.91
2019-01-12T10:02:29.553Z,99137.84
2019-01-12T10:05:00.682Z,99135.06
2019-01-12T10:07:31.272Z,99129.42
2019-01-12T10:10:02.023Z,99124.83
2019-01-12T10:12:33.461Z,99126.34
2019-01-12T10:15:04.291Z,99116.77
2019-01-12T10:17:35.377Z,99105.27
2019-01-12T10:20:08.268Z,99110.50
2019-01-12T10:22:38.778Z,99103.33
2019-01-12T10:25:10.506Z,99106.03
2019-01-12T10:27:41.198Z,99101.19
2019-01-12T10:30:24.680Z,99099.27
2019-01-12T10:32:56.032Z,99092.13
2019-01-12T10:35:26.791Z,99097.00
2019-01-12T10:37:57.514Z,99093.30
2019-01-12T10:40:28.166Z,99090.98
2019-01-12T10:42:58.747Z,99089.86
2019-01-12T10:45:29.609Z,99085.25
2019-01-12T10:48:00.292Z,99082.81
2019-01-12T10:50:38.072Z,99078.08
2019-01-12T10:53:08.813Z,99073.81
2019-01-12T10:55:39.864Z,99068.31
2019-01-12T10:58:12.566Z,99060.84
2019-01-12T11:00:43.235Z,99061.63
2019-01-12T11:03:13.889Z,99062.14
2019-01-12T11:05:44.812Z,99057.84
2019-01-12T11:08:15.487Z,99050.17
2019-01-12T11:10:46.100Z,99048.89
2019-01-12T11:13:16.727Z,99041.69
2019-01-12T11:15:47.455Z,99032.77
2019-01-12T11:18:18.097Z,99039.80
2019-01-12T11:20:48.844Z,99031.99
2019-01-12T11:23:20.307Z,99031.97
2019-01-12T11:25:50.998Z,99021.19
2019-01-12T11:28:21.561Z,99019.53
2019-01-12T11:30:52.421Z,99015.02
2019-01-12T11:33:23.188Z,99017.69
2019-01-12T11:35:53.790Z,99012.74
2019-01-12T11:38:24.401Z,99008.27
2019-01-12T11:40:54.875Z,98999.75
2019-01-12T11:43:25.432Z,99005.62
2019-01-12T11:45:55.811Z,98994.92
2019-01-12T11:48:26.285Z,98999.02
2019-01-12T11:51:07.042Z,98988.44
2019-01-12T11:53:37.708Z,98987.80
2019-01-12T11:56:08.261Z,98983.73
2019-01-12T11:58:38.753Z,98972.48
2019-01-12T12:01:09.488Z,98968.89
2019-01-12T12:03:40.103Z,98963.27
2019-01-12T12:06:11.229Z,98961.81
2019-01-12T12:08:41.893Z,98958.32
2019-01-12T12:11:12.561Z,98955.39
2019-01-12T12:13:43.241Z,98950.62
2019-01-12T12:16:14.008Z,98946.14
2019-01-12T12:18:44.548Z,98945.47
2019-01-12T12:21:15.226Z,98939.49
2019-01-12T12:23:45.883Z,98937.80
2019-01-12T12:26:16.557Z,98938.09
2019-01-12T12:28:47.030Z,98930.42
2019-01-12T12:31:17.651Z,98924.19
2019-01-12T12:33:48.175Z,98915.84
2019-01-12T12:36:18.812Z,98924.79
2019-01-12T12:38:49.607Z,98922.49
2019-01-12T12:41:20.313Z,98920.20
2019-01-12T12:43:51.137Z,98914.30
2019-01-12T12:46:21.907Z,98917.23
2019-01-12T12:48:52.669Z,98906.36
2019-01-12T12:51:23.412Z,98909.67
2019-01-12T12:53:54.133Z,98913.73
2019-01-12T12:56:24.982Z,98901.44
2019-01-12T12:58:55.652Z,98900.16
2019-01-12T13:01:26.526Z,98895.77
2019-01-12T13:03:57.164Z,98899.45
2019-01-12T13:06:27.917Z,98894.38
2019-01-12T13:08:58.956Z,98884.94
2019-01-12T13:11:29.763Z,98882.38
2019-01-12T13:14:00.311Z,98879.86
2019-01-12T13:16:30.997Z,98876.77
2019-01-12T13:19:01.977Z,98874.89
2019-01-12T13:21:32.717Z,98878.09
2019-01-12T13:24:07.172Z,98876.70
2019-01-12T13:26:37.880Z,98878.88
2019-01-12T13:29:09.058Z,98871.13
2019-01-12T13:31:39.773Z,98871.88
2019-01-12T13:34:10.555Z,98874.96
2019-01-12T13:36:41.262Z,98865.87
2019-01-12T13:39:12.096Z,98854.41
2019-01-12T13:41:43.142Z,98859.63
2019-01-12T13:44:32.968Z,98857.83
2019-01-12T13:47:03.716Z,98852.33
2019-01-12T13:49:34.344Z,98851.81
2019-01-12T13:52:05.167Z,98842.86
2019-01-12T13:54:35.828Z,98839.03
2019-01-12T13:57:06.707Z,98837.00
2019-01-12T13:59:37.485Z,98840.84
2019-01-12T14:02:08.262Z,98840.95
2019-01-12T14:04:38.962Z,98825.27
2019-01-12T14:07:09.703Z,98831.36
2019-01-12T14:09:42.096Z,98825.50
2019-01-12T14:12:12.789Z,98818.47
2019-01-12T14:14:43.553Z,98822.87
2019-01-12T14:17:14.445Z,98816.33
2019-01-12T14:19:45.051Z,98811.70
2019-01-12T14:22:15.619Z,98811.97
2019-01-12T14:24:46.243Z,98813.89
2019-01-12T14:27:16.787Z,98812.72
2019-01-12T14:29:47.479Z,98799.83
2019-01-12T14:32:18.031Z,98801.48
2019-01-12T14:34:48.717Z,98800.05
2019-01-12T14:37:19.595Z,98786.00
2019-01-12T14:39:50.187Z,98792.77
2019-01-12T14:42:21.291Z,98790.05
2019-01-12T14:44:51.937Z,98788.40
2019-01-12T14:47:22.647Z,98783.28
2019-01-12T14:49:53.498Z,98783.77
2019-01-12T14:52:24.293Z,98775.84
2019-01-12T14:54:55.431Z,98777.91
2019-01-12T14:57:26.161Z,98778.02
2019-01-12T14:59:56.808Z,98771.73
2019-01-12T15:02:27.858Z,98772.86
2019-01-12T15:04:58.704Z,98767.86
2019-01-12T15:07:29.493Z,98765.68
2019-01-12T15:10:00.251Z,98758.42
2019-01-12T15:12:30.863Z,98752.73
2019-01-12T15:15:01.554Z,98747.62
2019-01-12T15:17:32.282Z,98752.09
2019-01-12T15:20:03.012Z,98746.50
2019-01-12T15:22:33.718Z,98746.08
2019-01-12T15:25:05.327Z,98741.08
2019-01-12T15:27:36.109Z,98737.88
2019-01-12T15:30:14.656Z,98740.16
2019-01-12T15:32:45.352Z,98732.49
2019-01-12T15:35:17.343Z,98724.82
2019-01-12T15:37:49.240Z,98722.75
2019-01-12T15:40:21.269Z,98724.03
2019-01-12T15:42:52.057Z,98723.27
2019-01-12T15:45:25.012Z,98723.27
2019-01-12T15:47:55.859Z,98711.88
2019-01-12T15:50:28.447Z,98714.16
2019-01-12T15:52:59.298Z,98711.46
2019-01-12T15:55:29.858Z,98707.77
2019-01-12T15:58:01.128Z,98707.41
2019-01-12T16:00:33.360Z,98704.20
2019-01-12T16:03:05.497Z,98705.07
2019-01-12T16:05:36.250Z,98695.25
2019-01-12T16:08:07.008Z,98688.86
2019-01-12T16:10:37.687Z,98687.69
2019-01-12T16:13:09.403Z,98687.96
2019-01-12T16:15:41.244Z,98680.29
2019-01-12T16:18:11.979Z,98682.30
2019-01-12T16:20:46.917Z,98669.52
2019-01-12T16:23:17.721Z,98672.08
2019-01-12T16:25:48.760Z,98671.56
2019-01-12T16:28:23.328Z,98666.17
2019-01-12T16:30:52.319Z,98663.99
2019-01-12T16:33:36.814Z,98655.45
2019-01-12T16:36:07.591Z,98651.63
2019-01-12T16:38:38.220Z,98645.98
2019-01-12T16:41:08.877Z,98641.94
2019-01-12T16:43:39.620Z,98641.34
2019-01-12T16:46:10.792Z,98643.27
2019-01-12T16:48:43.056Z,98645.45
2019-01-12T16:51:13.858Z,98637.67
2019-01-12T16:53:44.773Z,98639.33
2019-01-12T16:56:15.529Z,98636.67
2019-01-12T16:58:46.351Z,98625.75
2019-01-12T17:01:17.009Z,98626.27
2019-01-12T17:03:47.867Z,98624.58
2019-01-12T17:06:18.637Z,98633.67
2019-01-12T17:08:49.453Z,98625.59
2019-01-12T17:11:20.318Z,98628.94
2019-01-12T17:13:51.722Z,98628.05
2019-01-12T17:16:22.623Z,98621.27
2019-01-12T17:18:53.497Z,98621.55
2019-01-12T17:21:24.441Z,98615.05
2019-01-12T17:23:55.572Z,98616.22
2019-01-12T17:26:26.379Z,98618.50
2019-01-12T17:29:00.312Z,98612.11
2019-01-12T17:31:30.967Z,98613.39
2019-01-12T17:34:01.733Z,98611.80
2019-01-12T17:36:32.712Z,98598.84
2019-01-12T17:39:05.761Z,98594.91
2019-01-12T17:41:36.570Z,98589.90
2019-01-12T17:44:10.535Z,98589.25
2019-01-12T17:46:41.592Z,98591.63
2019-01-12T17:49:12.372Z,98588.01
2019-01-12T17:51:46.412Z,98579.68
2019-01-12T17:54:17.315Z,98587.35
2019-01-12T17:56:48.649Z,98576.33
2019-01-12T17:59:19.477Z,98576.33
2019-01-12T18:01:50.578Z,98567.76
2019-01-12T18:04:21.506Z,98562.78
2019-01-12T18:06:52.353Z,98554.31
2019-01-12T18:09:23.168Z,98555.80
2019-01-12T18:11:56.537Z,98550.96
2019-01-12T18:14:29.017Z,98544.47
2019-01-12T18:16:59.858Z,98537.69
2019-01-12T18:19:31.826Z,98526.18
2019-01-12T18:22:03.840Z,98532.85
2019-01-12T18:24:40.257Z,98527.36
2019-01-12T18:27:12.437Z,98531.50
2019-01-12T18:29:46.682Z,98522.55
2019-01-12T18:32:18.072Z,98515.16
2019-01-12T18:34:49.098Z,98511.02
2019-01-12T18:37:21.563Z,98511.39
2019-01-12T18:39:56.273Z,98507.83
2019-01-12T18:42:31.257Z,98498.58
2019-01-12T18:45:05.358Z,98506.91
2019-01-12T18:47:38.963Z,98501.76
2019-01-12T18:50:20.010Z,98503.21
2019-01-12T18:52:51.007Z,98499.16
2019-01-12T18:55:22.153Z,98485.77
2019-01-12T18:57:54.159Z,98483.90
2019-01-12T19:00:33.252Z,98476.88
2019-01-12T19:03:04.046Z,98478.34
2019-01-12T19:05:35.938Z,98478.02
2019-01-12T19:08:07.888Z,98467.70
2019-01-12T19:10:42.403Z,98466.48
2019-01-12T19:13:13.845Z,98459.58
2019-01-12T19:15:49.169Z,98457.30
2019-01-12T19:18:20.164Z,98458.89
2019-01-12T19:20:51.780Z,98455.81
2019-01-12T19:23:25.068Z,98448.84
2019-01-12T19:25:55.898Z,98450.77
2019-01-12T19:28:27.122Z,98440.17
2019-01-12T19:31:02.434Z,98432.78
2019-01-12T19:33:36.893Z,98428.84
2019-01-12T19:36:07.668Z,98435.61
2019-01-12T19:38:38.737Z,98424.12
2019-01-12T19:41:12.741Z,98431.78
2019-01-12T19:43:43.957Z,98422.25
2019-01-12T19:46:15.124Z,98411.23
2019-01-12T19:48:47.060Z,98410.75
2019-01-12T19:51:25.549Z,98412.79
2019-01-12T19:54:03.631Z,98411.13
2019-01-12T19:56:35.639Z,98406.41
2019-01-12T19:59:13.789Z,98397.19
2019-01-12T20:04:26.339Z,98395.42
2019-01-12T20:06:58.332Z,98401.30
2019-01-12T20:09:32.167Z,98403.84
2019-01-12T20:12:04.268Z,98390.59
2019-01-12T20:14:37.194Z,98390.59
2019-01-12T20:17:11.773Z,98377.02
2019-01-12T20:19:47.437Z,98378.30
2019-01-12T20:22:18.197Z,98376.27
2019-01-12T20:24:50.585Z,98366.22
2019-01-12T20:27:33.541Z,98364.53
2019-01-12T20:30:03.913Z,98370.91
2019-01-12T20:33:26.127Z,98360.70
2019-01-12T20:36:40.593Z,98362.56
2019-01-12T20:40:03.293Z,98348.20
2019-01-12T20:43:36.709Z,98350.89
2019-01-12T20:46:53.559Z,98348.10
2019-01-12T20:49:40.482Z,98337.50
2019-01-12T20:52:55.852Z,98329.64
2019-01-12T20:56:04.121Z,98327.08
2019-01-12T20:59:17.547Z,98323.73
2019-01-12T21:02:47.806Z,98321.45
2019-01-12T21:05:33.193Z,98317.24
2019-01-12T21:09:05.100Z,98311.83
2019-01-12T21:12:25.351Z,98307.38
2019-01-12T21:15:13.454Z,98289.95
2019-01-12T21:17:50.343Z,98298.69
2019-01-12T21:20:22.463Z,98299.59
2019-01-12T21:23:00.127Z,98293.20
2019-01-12T21:25:30.935Z,98281.71
2019-01-12T21:28:09.135Z,98295.86
2019-01-12T21:30:40.124Z,98291.65
2019-01-12T21:33:10.978Z,98286.64
2019-01-12T21:35:43.309Z,98283.67
2019-01-12T21:38:18.839Z,98288.61
2019-01-12T21:40:50.991Z,98283.12
2019-01-12T21:43:25.280Z,98283.91
2019-01-12T21:45:57.329Z,98285.19
2019-01-12T21:48:29.748Z,98287.64
2019-01-12T21:51:06.690Z,98273.88
2019-01-12T21:53:37.702Z,98271.87
2019-01-12T21:56:27.565Z,98276.09
2019-01-12T21:58:58.541Z,98273.05
2019-01-12T22:01:36.097Z,98272.53
2019-01-12T22:04:01.842Z,98265.56
2019-01-12T22:06:32.570Z,98264.84
2019-01-12T22:09:04.483Z,98270.65
2019-01-12T22:11:35.339Z,98267.75
2019-01-12T22:14:06.888Z,98266.20
2019-01-12T22:16:37.836Z,98257.55
2019-01-12T22:19:08.908Z,98259.33
2019-01-12T22:21:39.874Z,98255.98
2019-01-12T22:24:10.905Z,98259.61
2019-01-12T22:26:41.842Z,98247.13
2019-01-12T22:29:12.646Z,98252.71
2019-01-12T22:31:44.782Z,98249.60
2019-01-12T22:34:15.970Z,98256.50
2019-01-12T22:36:46.908Z,98244.50
2019-01-12T22:39:17.643Z,98244.84
2019-01-12T22:41:49.245Z,98241.59
2019-01-12T22:44:20.660Z,98241.52
2019-01-12T22:46:51.522Z,98227.98
2019-01-12T22:49:23.369Z,98239.58
2019-01-12T22:51:54.387Z,98244.41
2019-01-12T22:54:25.142Z,98234.02
2019-01-12T22:56:56.047Z,98241.27
2019-01-12T22:59:27.148Z,98237.66
2019-01-12T23:02:02.664Z,98229.20
2019-01-12T23:04:34.933Z,98230.48
2019-01-12T23:07:11.404Z,98225.09
2019-01-12T23:09:39.035Z,98228.41
2019-01-12T23:12:10.053Z,98215.54
2019-01-12T23:14:40.771Z,98218.43
2019-01-12T23:17:11.809Z,98210.35
2019-01-12T23:19:43.049Z,98206.05
2019-01-12T23:22:14.800Z,98198.09
2019-01-12T23:24:45.704Z,98205.86
2019-01-12T23:27:16.849Z,98200.38
2019-01-12T23:29:47.701Z,98195.74
2019-01-12T23:32:18.693Z,98199.09
2019-01-12T23:34:49.448Z,98191.43
2019-01-12T23:37:20.207Z,98192.91
2019-01-12T23:39:51.183Z,98194.19
2019-01-12T23:42:22.357Z,98192.63
2019-01-12T23:44:53.492Z,98194.66
2019-01-12T23:47:24.424Z,98183.88
2019-01-12T23:49:55.272Z,98189.98
2019-01-12T23:52:26.155Z,98188.19
2019-01-12T23:54:56.907Z,98183.31
2019-01-12T23:57:27.540Z,98183.69
2019-01-12T23:59:58.418Z,98186.63
